Aviation Digital Data Service (ADDS)

Output produced by METARs form (0057 UTC 25 August 2016)
found at http://aviationweather.gov/adds/metars/
 
KDAN 242321Z 2500/2524 VRB03KT P6SM SCT060 
     FM251300 23005KT P6SM SCT045 SCT100